Time;durP1;ratioP1;P1;durP2;ratioP2;P2;SDS_P1;SDS_P2;PMS_P1;PMS_P2;Temp;Humidity;BMP_temperature;BMP_pressure;BME280_temperature;BME280_humidity;BME280_pressure;Samples;Min_cycle;Max_cycle;Signal;HPM_P1;HPM_P2
2022/03/22 08:54:06;;;;;;;;;;;;;;;18.71;38.79;100491.75;5077530;28;19926;-62
2022/03/22 09:02:44;;;;;;;;;;;;;;;19.28;40.00;100485.91;5073659;28;20918;-62
2022/03/22 09:07:53;;;;;;;;;;;;;;;18.75;39.68;100493.34;5055601;28;20401;-62
2022/03/22 09:22:43;;;;;;;;;;;;;;;19.88;37.74;100486.66;5069589;28;19947;-62
2022/03/22 09:25:12;;;;;;;;;;;;;;;20.00;36.56;100480.00;5070225;28;19916;-62
2022/03/22 09:27:43;;;;;;;;;;;;;;;19.74;36.31;100474.22;5073283;28;20379;-62
2022/03/22 09:51:51;;;;;;;;;;;;;;;19.49;34.49;100474.47;5074475;28;19978;-61
2022/03/22 10:03:26;;;;;;;;;;;;;;;19.36;36.95;100473.34;5075554;28;19961;-62
2022/03/22 10:05:58;;;;;;;;;;;;;;;19.81;41.23;100472.19;5073691;28;20321;-62
2022/03/22 10:08:24;;;;;;;;;;;;;;;18.69;39.98;100472.72;5073452;28;20814;-62
2022/03/22 10:10:53;;;;;;;;;;;;;;;19.74;38.09;100462.94;5077175;28;20121;-62
2022/03/22 10:13:18;;;;;;;;;;;;;;;19.71;41.40;100466.53;5074617;28;19916;-62
2022/03/22 10:15:44;;;;;;;;;;;;;;;19.06;40.68;100473.78;5032453;28;19927;-62
2022/03/22 10:18:09;;;;;;;;;;;;;;;19.35;40.58;100471.66;5075374;28;19912;-61
2022/03/22 10:20:36;;;;;;;;;;;;;;;20.05;41.49;100463.19;5073252;28;20441;-62
2022/03/22 10:23:02;;;;;;;;;;;;;;;19.23;40.17;100471.28;5069897;28;20018;-62
2022/03/22 10:31:50;;;;;;;;;;;;;;;20.43;43.91;100462.22;5075183;28;20339;-61
2022/03/22 10:34:16;;;;;;;;;;;;;;;19.34;44.25;100456.88;5046788;28;19916;-62
2022/03/22 10:36:42;;;;;;;;;;;;;;;19.92;45.77;100463.84;5077920;28;19923;-62
2022/03/22 10:42:10;;;;;;;;;;;;;;;19.96;42.12;100453.16;5069515;28;19961;-62
2022/03/22 10:44:39;;;;;;;;;;;;;;;20.48;44.13;100450.63;5046817;28;19924;-63
2022/03/22 10:47:07;;;;;;;;;;;;;;;19.58;45.05;100453.16;5074349;28;20010;-62
2022/03/22 10:49:32;;;;;;;;;;;;;;;20.10;42.50;100449.03;5075195;28;19963;-63
2022/03/22 10:51:57;;;;;;;;;;;;;;;20.60;42.63;100448.34;5075968;28;19954;-62
2022/03/22 10:54:23;;;;;;;;;;;;;;;21.35;43.86;100448.81;5075025;28;19951;-62
2022/03/22 10:56:49;;;;;;;;;;;;;;;20.66;41.12;100448.00;5077288;28;19912;-62
2022/03/22 10:59:17;;;;;;;;;;;;;;;19.68;42.07;100452.72;5073097;28;20299;-62
2022/03/22 11:01:43;;;;;;;;;;;;;;;20.01;41.29;100442.47;5074954;28;20361;-62
2022/03/22 11:04:09;;;;;;;;;;;;;;;19.52;40.67;100440.34;5071706;28;19959;-62
2022/03/22 11:06:34;;;;;;;;;;;;;;;20.39;43.95;100438.00;5077535;28;19931;-62
2022/03/22 11:09:00;;;;;;;;;;;;;;;21.65;46.63;100436.69;5028453;28;19920;-63
2022/03/22 11:11:25;;;;;;;;;;;;;;;20.24;43.56;100441.38;5074961;28;19924;-62
2022/03/22 11:13:51;;;;;;;;;;;;;;;19.74;44.79;100437.63;5075546;28;19920;-62
2022/03/22 11:16:16;;;;;;;;;;;;;;;20.39;40.41;100424.91;5045385;28;20292;-60
2022/03/22 11:18:46;;;;;;;;;;;;;;;20.31;39.94;100431.44;5065407;28;19931;-62
2022/03/22 11:21:15;;;;;;;;;;;;;;;20.15;39.82;100431.34;5057433;28;19926;-63
2022/03/22 11:23:40;;;;;;;;;;;;;;;21.02;41.40;100424.31;5065218;28;19962;-62
2022/03/22 11:26:12;;;;;;;;;;;;;;;19.81;41.91;100430.34;5065573;28;19955;-63
2022/03/22 11:28:41;;;;;;;;;;;;;;;20.32;39.05;100423.53;5070468;28;19924;-63
2022/03/22 11:31:09;;;;;;;;;;;;;;;20.85;40.09;100422.59;5068355;28;19948;-63
2022/03/22 11:36:19;;;;;;;;;;;;;;;21.17;41.13;100403.50;5031951;28;19927;-63
2022/03/22 11:38:51;;;;;;;;;;;;;;;20.12;39.14;100411.44;5063523;28;20342;-62
2022/03/22 11:44:13;;;;;;;;;;;;;;;21.17;38.32;100403.50;5069737;28;20023;-62
2022/03/22 11:46:38;;;;;;;;;;;;;;;20.93;41.42;100403.84;5060809;28;20300;-63
2022/03/22 11:49:20;;;;;;;;;;;;;;;21.87;39.91;100401.41;5039370;28;19930;-62
2022/03/22 11:51:53;;;;;;;;;;;;;;;22.02;36.13;100400.53;5023159;28;19920;-63
2022/03/22 11:54:25;;;;;;;;;;;;;;;21.29;38.33;100406.28;5055060;28;20438;-62
2022/03/22 11:56:51;;;;;;;;;;;;;;;20.37;40.54;100405.00;5065633;28;19920;-63
2022/03/22 11:59:22;;;;;;;;;;;;;;;21.74;39.81;100405.69;5064542;28;19957;-62
2022/03/22 12:02:04;;;;;;;;;;;;;;;21.39;39.87;100400.53;5071277;28;20384;-61
2022/03/22 12:04:36;;;;;;;;;;;;;;;21.22;39.39;100394.44;5074280;28;19926;-63
2022/03/22 12:07:06;;;;;;;;;;;;;;;21.53;39.49;100403.31;5070090;28;19939;-62
2022/03/22 12:09:31;;;;;;;;;;;;;;;21.59;38.63;100397.72;5070360;28;19946;-62
2022/03/22 12:11:58;;;;;;;;;;;;;;;22.81;43.68;100399.44;5070256;28;19954;-62
2022/03/22 12:14:26;;;;;;;;;;;;;;;21.42;36.78;100395.19;5068891;28;20014;-63
2022/03/22 12:16:53;;;;;;;;;;;;;;;20.60;36.66;100390.75;5068618;28;19920;-62
2022/03/22 12:19:29;;;;;;;;;;;;;;;21.64;36.87;100385.19;5050435;28;19923;-62
2022/03/22 12:21:55;;;;;;;;;;;;;;;22.52;38.40;100382.81;5053527;28;19927;-63
2022/03/22 12:24:21;;;;;;;;;;;;;;;22.92;36.98;100380.38;5076552;28;20369;-64
2022/03/22 12:26:47;;;;;;;;;;;;;;;22.28;37.82;100385.09;5078153;28;19935;-64
2022/03/22 12:29:12;;;;;;;;;;;;;;;21.21;36.50;100378.81;5075756;28;20297;-63
2022/03/22 12:31:45;;;;;;;;;;;;;;;22.61;38.22;100368.28;5079128;28;20011;-63
2022/03/22 12:34:11;;;;;;;;;;;;;;;22.47;35.86;100366.50;5077921;28;19947;-63
2022/03/22 12:36:36;;;;;;;;;;;;;;;21.93;34.84;100364.34;5077506;28;19955;-63
2022/03/22 12:39:02;;;;;;;;;;;;;;;22.35;34.95;100354.91;5056353;28;19916;-63
2022/03/22 12:41:27;;;;;;;;;;;;;;;23.01;38.86;100365.88;5076070;28;20014;-63
2022/03/22 12:43:52;;;;;;;;;;;;;;;21.56;34.48;100360.34;5031050;28;19924;-63
2022/03/22 12:46:18;;;;;;;;;;;;;;;22.51;35.42;100352.22;5076979;28;20445;-63
2022/03/22 12:48:43;;;;;;;;;;;;;;;21.55;35.05;100359.47;5056681;28;19958;-63
2022/03/22 12:51:09;;;;;;;;;;;;;;;23.01;36.92;100358.00;5056907;28;19981;-63
2022/03/22 12:53:34;;;;;;;;;;;;;;;23.02;32.45;100350.03;5054591;28;19912;-63
2022/03/22 12:56:00;;;;;;;;;;;;;;;23.64;33.89;100341.69;5078778;28;19920;-63
2022/03/22 12:58:26;;;;;;;;;;;;;;;23.61;34.02;100347.16;5053916;28;20327;-63
2022/03/22 13:00:52;;;;;;;;;;;;;;;23.11;33.27;100343.34;5078980;28;20411;-64
2022/03/22 13:03:19;;;;;;;;;;;;;;;23.47;32.35;100334.03;5077067;28;19921;-63
2022/03/22 13:05:48;;;;;;;;;;;;;;;22.00;30.36;100334.19;5077080;28;19927;-63
2022/03/22 13:11:26;;;;;;;;;;;;;;;21.48;29.29;100326.69;5077718;28;19919;-63
2022/03/22 13:11:28;;;;;;;;;;;;;;;21.67;30.92;100329.97;5077532;28;19927;-63
2022/03/22 13:16:41;;;;;;;;;;;;;;;22.44;29.19;100317.66;5077431;28;20477;-64
2022/03/22 13:19:09;;;;;;;;;;;;;;;21.45;29.37;100317.22;5060877;28;20003;-64
2022/03/22 13:21:36;;;;;;;;;;;;;;;21.56;29.15;100328.91;5076277;28;19938;-64
2022/03/22 13:24:09;;;;;;;;;;;;;;;23.04;31.79;100321.03;5077852;28;19919;-64
2022/03/22 13:26:35;;;;;;;;;;;;;;;21.40;29.41;100308.78;5075556;28;20390;-64
2022/03/22 13:29:13;;;;;;;;;;;;;;;21.79;29.58;100322.34;5058004;28;19916;-63
2022/03/22 13:31:38;;;;;;;;;;;;;;;22.47;28.28;100317.44;5075956;28;20046;-64
2022/03/22 13:34:03;;;;;;;;;;;;;;;22.12;29.50;100311.63;5076066;28;19963;-64
2022/03/22 13:36:29;;;;;;;;;;;;;;;21.70;26.30;100295.69;5075752;28;19932;-64
2022/03/22 13:38:54;;;;;;;;;;;;;;;23.16;28.96;100299.22;5076001;28;19912;-64
2022/03/22 13:41:26;;;;;;;;;;;;;;;22.22;27.92;100307.59;5075891;28;19916;-63
2022/03/22 13:43:51;;;;;;;;;;;;;;;21.29;28.69;100304.09;5076748;28;20019;-64
2022/03/22 13:46:17;;;;;;;;;;;;;;;22.27;28.27;100300.28;5050194;28;20061;-62
2022/03/22 13:48:43;;;;;;;;;;;;;;;22.53;27.58;100293.47;5077389;28;19927;-62
2022/03/22 13:51:21;;;;;;;;;;;;;;;23.05;26.80;100299.06;5074669;28;19931;-62
2022/03/22 13:53:47;;;;;;;;;;;;;;;23.65;28.62;100285.53;5072681;28;19931;-62
2022/03/22 13:56:17;;;;;;;;;;;;;;;24.09;30.54;100294.91;5074666;28;20110;-62
2022/03/22 13:58:44;;;;;;;;;;;;;;;22.09;25.79;100285.59;5053852;28;20005;-62
2022/03/22 14:01:13;;;;;;;;;;;;;;;21.94;24.17;100271.63;5070316;28;20010;-62
2022/03/22 14:03:39;;;;;;;;;;;;;;;22.98;26.26;100283.63;5071132;28;19920;-62
2022/03/22 14:06:07;;;;;;;;;;;;;;;21.54;27.55;100288.81;5068601;28;20007;-62
2022/03/22 14:08:33;;;;;;;;;;;;;;;21.06;25.43;100280.97;5066243;28;19949;-62
2022/03/22 14:10:58;;;;;;;;;;;;;;;21.73;26.96;100284.19;5069723;28;19982;-62
2022/03/22 14:13:24;;;;;;;;;;;;;;;21.66;26.40;100281.06;5068253;28;19923;-61
2022/03/22 14:15:50;;;;;;;;;;;;;;;21.10;25.48;100274.63;5069068;28;19927;-62
2022/03/22 14:18:16;;;;;;;;;;;;;;;22.00;25.82;100273.88;5068367;28;19920;-64
2022/03/22 14:20:42;;;;;;;;;;;;;;;21.78;28.26;100290.03;5059269;28;20464;-62
2022/03/22 14:23:08;;;;;;;;;;;;;;;22.18;27.96;100278.97;5048074;28;19935;-62
2022/03/22 14:25:34;;;;;;;;;;;;;;;22.72;27.38;100271.31;5028696;28;20980;-62
2022/03/22 14:28:00;;;;;;;;;;;;;;;21.21;25.56;100271.38;5069087;28;19967;-62
2022/03/22 14:30:26;;;;;;;;;;;;;;;21.33;25.69;100269.88;5066041;28;20382;-61
2022/03/22 14:32:52;;;;;;;;;;;;;;;21.10;26.21;100267.59;5069385;28;19916;-61
2022/03/22 14:38:01;;;;;;;;;;;;;;;21.65;32.05;100291.66;5062669;28;19928;-62
2022/03/22 14:40:27;;;;;;;;;;;;;;;21.52;26.92;100260.06;5066871;28;20588;-62
2022/03/22 14:42:53;;;;;;;;;;;;;;;20.58;29.19;100266.97;5064137;28;20006;-61
2022/03/22 14:45:21;;;;;;;;;;;;;;;21.66;27.84;100259.25;5047799;28;20410;-63
2022/03/22 14:47:49;;;;;;;;;;;;;;;21.23;29.34;100269.53;5068606;28;20325;-63
2022/03/22 14:50:16;;;;;;;;;;;;;;;20.17;27.36;100262.13;5033143;28;20315;-64
2022/03/22 14:55:25;;;;;;;;;;;;;;;20.96;28.13;100257.06;5073541;28;19926;-61
2022/03/22 15:00:34;;;;;;;;;;;;;;;20.12;29.92;100262.34;5067866;28;19923;-65
2022/03/22 15:03:00;;;;;;;;;;;;;;;20.27;28.87;100258.06;5065020;28;19921;-65
2022/03/22 15:05:45;;;;;;;;;;;;;;;20.66;30.17;100270.00;5066511;28;19916;-64
2022/03/22 15:08:11;;;;;;;;;;;;;;;19.51;28.80;100253.16;5064356;28;19920;-62
2022/03/22 15:10:40;;;;;;;;;;;;;;;19.27;28.64;100259.56;5070655;28;19927;-61
2022/03/22 15:13:07;;;;;;;;;;;;;;;19.12;28.69;100255.94;5071774;28;19923;-64
2022/03/22 15:15:33;;;;;;;;;;;;;;;19.73;27.99;100246.88;5065530;28;19977;-65
2022/03/22 15:18:22;;;;;;;;;;;;;;;20.46;29.03;100253.59;5068284;28;19921;-61
2022/03/22 15:21:04;;;;;;;;;;;;;;;19.70;29.13;100252.28;5069854;28;19956;-61
2022/03/22 15:32:39;;;;;;;;;;;;;;;20.58;30.21;100235.56;5066978;28;20281;-62
2022/03/22 15:35:08;;;;;;;;;;;;;;;19.43;30.16;100237.88;5069853;28;19924;-62
2022/03/22 15:53:26;;;;;;;;;;;;;;;19.36;31.71;100231.25;5077849;28;20789;-62
2022/03/22 15:55:52;;;;;;;;;;;;;;;18.93;32.24;100237.66;5050780;28;19928;-61
2022/03/22 16:01:54;;;;;;;;;;;;;;;20.39;31.67;100225.19;5067427;28;20017;-61
2022/03/22 16:22:48;;;;;;;;;;;;;;;19.29;31.11;100223.78;5071121;28;19920;-61
2022/03/22 16:25:14;;;;;;;;;;;;;;;18.99;31.74;100224.31;5073418;28;19931;-62
2022/03/22 16:27:46;;;;;;;;;;;;;;;18.53;32.24;100231.66;5077511;28;19915;-62
2022/03/22 16:30:15;;;;;;;;;;;;;;;18.44;32.90;100230.28;5076494;28;19916;-62
2022/03/22 16:41:54;;;;;;;;;;;;;;;19.40;31.99;100229.31;5072039;28;19935;-61
2022/03/22 16:44:20;;;;;;;;;;;;;;;19.00;31.66;100236.47;5076105;28;20015;-66
2022/03/22 16:46:45;;;;;;;;;;;;;;;20.09;31.20;100222.41;5077280;28;19991;-62
2022/03/22 16:49:10;;;;;;;;;;;;;;;18.88;32.00;100237.03;5072551;28;19922;-61
2022/03/22 16:51:36;;;;;;;;;;;;;;;18.88;31.30;100226.59;5071135;28;19947;-62
2022/03/22 16:54:01;;;;;;;;;;;;;;;19.67;31.03;100219.28;5070624;28;19939;-62
2022/03/22 17:02:33;;;;;;;;;;;;;;;19.58;31.25;100223.19;5063837;28;19927;-61
2022/03/22 17:05:00;;;;;;;;;;;;;;;19.12;31.71;100225.44;5066345;28;20366;-61
2022/03/22 17:34:24;;;;;;;;;;;;;;;20.48;30.41;100230.81;5028765;28;19964;-60
2022/03/22 17:36:49;;;;;;;;;;;;;;;19.48;31.20;100231.56;5031797;28;20152;-61
2022/03/22 17:39:15;;;;;;;;;;;;;;;18.65;31.26;100241.50;5048881;28;19924;-60
2022/03/22 17:41:40;;;;;;;;;;;;;;;19.07;32.47;100244.84;5046015;28;19925;-61
2022/03/22 17:44:05;;;;;;;;;;;;;;;19.87;31.13;100231.38;5041822;28;20410;-61
2022/03/22 17:46:31;;;;;;;;;;;;;;;20.00;31.35;100232.44;5045982;28;19962;-60
2022/03/22 17:48:58;;;;;;;;;;;;;;;20.47;31.62;100241.34;5050548;28;19917;-61
2022/03/22 17:51:24;;;;;;;;;;;;;;;19.46;33.41;100239.47;5048808;28;20313;-60
2022/03/22 17:53:49;;;;;;;;;;;;;;;20.19;32.23;100228.88;5033068;28;19921;-61
2022/03/22 17:56:16;;;;;;;;;;;;;;;19.47;31.47;100241.16;5049433;28;19931;-61
2022/03/22 17:58:42;;;;;;;;;;;;;;;19.13;32.89;100245.41;5049144;28;20297;-61
2022/03/22 18:01:07;;;;;;;;;;;;;;;18.98;33.14;100248.75;5044684;28;19925;-61
2022/03/22 18:03:33;;;;;;;;;;;;;;;19.53;33.61;100242.66;5050298;28;20350;-61
2022/03/22 18:05:58;;;;;;;;;;;;;;;19.55;33.79;100232.97;5049012;28;20568;-61
2022/03/22 18:08:24;;;;;;;;;;;;;;;19.58;34.17;100243.25;5050094;28;19928;-61
2022/03/22 18:11:41;;;;;;;;;;;;;;;19.37;34.22;100239.94;5048355;28;20011;-60
2022/03/22 18:13:35;;;;;;;;;;;;;;;19.41;34.40;100244.94;5046877;28;19956;-61
2022/03/22 18:16:00;;;;;;;;;;;;;;;19.32;35.09;100244.53;5051114;28;19963;-60
2022/03/22 18:18:26;;;;;;;;;;;;;;;19.38;35.32;100245.06;5048157;28;20345;-60
2022/03/22 18:20:53;;;;;;;;;;;;;;;19.13;36.54;100252.38;5051595;28;19920;-61
2022/03/22 18:23:19;;;;;;;;;;;;;;;19.06;37.60;100254.44;5051508;28;19917;-60
2022/03/22 18:25:44;;;;;;;;;;;;;;;18.88;38.65;100261.38;5052003;28;19932;-61
2022/03/22 18:28:10;;;;;;;;;;;;;;;18.42;41.89;100259.97;5049771;28;20370;-60
2022/03/22 18:30:35;;;;;;;;;;;;;;;18.53;41.79;100262.94;5049612;28;19936;-60
2022/03/22 18:33:02;;;;;;;;;;;;;;;18.19;40.81;100264.44;5043011;28;19957;-60
2022/03/22 18:35:27;;;;;;;;;;;;;;;17.94;42.22;100255.03;5019139;28;19936;-59
2022/03/22 18:37:53;;;;;;;;;;;;;;;17.71;42.68;100263.78;5023522;28;19921;-59
2022/03/22 18:40:19;;;;;;;;;;;;;;;18.22;42.95;100259.06;5026757;28;19993;-60
2022/03/22 18:42:44;;;;;;;;;;;;;;;17.81;41.92;100258.19;5025277;28;20454;-60
2022/03/22 18:45:10;;;;;;;;;;;;;;;18.04;41.42;100259.88;5024684;28;20271;-61
2022/03/22 18:47:36;;;;;;;;;;;;;;;17.39;43.85;100267.72;5021925;28;19965;-61
2022/03/22 18:50:03;;;;;;;;;;;;;;;16.43;49.89;100274.78;5025324;28;19943;-61
2022/03/22 18:52:29;;;;;;;;;;;;;;;16.37;51.76;100275.00;5020869;28;19956;-61
2022/03/22 18:54:55;;;;;;;;;;;;;;;17.06;48.21;100265.53;5004978;28;20051;-61
2022/03/22 18:57:20;;;;;;;;;;;;;;;16.60;51.53;100271.56;5004909;28;19921;-61
2022/03/22 18:59:46;;;;;;;;;;;;;;;16.91;48.33;100266.09;5015630;28;20145;-60
2022/03/22 19:02:11;;;;;;;;;;;;;;;16.19;48.87;100271.28;5022905;28;19932;-60
2022/03/22 19:04:36;;;;;;;;;;;;;;;16.13;53.11;100280.16;5027108;28;19917;-60
2022/03/22 19:07:03;;;;;;;;;;;;;;;15.74;57.14;100277.16;5024925;28;19920;-60
2022/03/22 19:09:28;;;;;;;;;;;;;;;15.14;59.96;100282.41;5025299;28;19921;-61
2022/03/22 19:11:54;;;;;;;;;;;;;;;15.44;60.56;100280.66;5022717;28;20402;-59
2022/03/22 19:14:19;;;;;;;;;;;;;;;15.02;62.58;100286.25;5009946;28;19928;-60
2022/03/22 19:19:32;;;;;;;;;;;;;;;15.15;62.47;100286.72;5025804;28;19928;-61
2022/03/22 19:21:59;;;;;;;;;;;;;;;14.60;57.28;100284.00;5024068;28;19921;-61
2022/03/22 19:24:26;;;;;;;;;;;;;;;15.03;58.85;100298.34;5021862;28;20466;-61
2022/03/22 19:26:51;;;;;;;;;;;;;;;14.91;63.01;100288.28;5023440;28;19928;-60
2022/03/22 19:29:17;;;;;;;;;;;;;;;15.35;62.27;100287.84;5009647;28;19921;-58
2022/03/22 19:34:27;;;;;;;;;;;;;;;15.17;63.02;100287.53;5043377;28;20348;-60
2022/03/22 19:36:52;;;;;;;;;;;;;;;15.46;67.92;100291.84;5025581;28;19929;-61
2022/03/22 19:39:17;;;;;;;;;;;;;;;14.88;64.08;100291.00;5051609;28;19921;-61
2022/03/22 19:41:44;;;;;;;;;;;;;;;15.18;62.35;100297.00;5049163;28;20494;-60
2022/03/22 19:44:10;;;;;;;;;;;;;;;14.73;66.84;100294.84;5047368;28;20410;-60
2022/03/22 19:46:35;;;;;;;;;;;;;;;15.07;66.96;100296.47;5026928;28;19960;-59
2022/03/22 19:49:01;;;;;;;;;;;;;;;14.42;66.12;100293.09;5044730;28;20382;-60
2022/03/22 19:51:27;;;;;;;;;;;;;;;14.87;66.12;100296.22;5048528;28;20289;-61
2022/03/22 19:53:52;;;;;;;;;;;;;;;15.21;63.47;100293.47;5030197;28;19921;-61
2022/03/22 19:56:18;;;;;;;;;;;;;;;14.47;65.66;100292.97;5050152;28;19975;-61
2022/03/22 19:58:43;;;;;;;;;;;;;;;14.96;64.50;100302.00;5046407;28;20090;-61
2022/03/22 20:01:11;;;;;;;;;;;;;;;15.29;60.98;100299.28;5050286;28;19920;-60
2022/03/22 20:03:36;;;;;;;;;;;;;;;15.62;54.53;100300.00;5048159;28;19921;-61
2022/03/22 20:06:02;;;;;;;;;;;;;;;15.74;55.14;100303.13;5047114;28;19917;-61
2022/03/22 20:08:28;;;;;;;;;;;;;;;15.05;55.63;100304.31;5051901;28;19925;-61
2022/03/22 20:10:54;;;;;;;;;;;;;;;15.40;54.58;100302.41;5050114;28;19928;-59
2022/03/22 20:13:20;;;;;;;;;;;;;;;15.32;55.75;100306.97;5049533;28;20045;-61
2022/03/22 20:15:45;;;;;;;;;;;;;;;15.20;55.45;100310.78;5045363;28;20386;-60
2022/03/22 20:18:11;;;;;;;;;;;;;;;15.08;55.41;100312.91;5047731;28;20181;-60
2022/03/22 20:20:37;;;;;;;;;;;;;;;14.79;55.65;100312.00;5049195;28;19967;-61
2022/03/22 20:23:02;;;;;;;;;;;;;;;15.27;57.38;100316.66;5050607;28;20337;-61
2022/03/22 20:25:28;;;;;;;;;;;;;;;14.89;54.81;100310.84;5050420;28;20400;-59
2022/03/22 20:27:54;;;;;;;;;;;;;;;14.99;58.08;100317.47;5049273;28;19928;-59
2022/03/22 20:30:20;;;;;;;;;;;;;;;14.75;62.02;100315.56;5049422;28;20847;-61
2022/03/22 20:32:45;;;;;;;;;;;;;;;14.02;55.10;100306.22;5052353;28;19934;-61
2022/03/22 20:35:10;;;;;;;;;;;;;;;14.32;63.86;100309.81;5053230;28;20007;-60
2022/03/22 20:37:38;;;;;;;;;;;;;;;14.97;57.94;100308.88;5048060;28;19916;-61
2022/03/22 20:40:03;;;;;;;;;;;;;;;14.23;54.55;100305.69;5033079;28;19917;-61
2022/03/22 20:42:28;;;;;;;;;;;;;;;14.43;61.15;100317.25;5051207;28;19923;-61
2022/03/22 20:44:54;;;;;;;;;;;;;;;14.28;53.39;100308.19;5049219;28;19921;-61
2022/03/22 20:47:20;;;;;;;;;;;;;;;15.00;55.92;100311.38;5029891;28;19920;-61
2022/03/22 20:49:46;;;;;;;;;;;;;;;14.59;56.48;100312.56;5049665;28;19924;-61
2022/03/22 20:52:12;;;;;;;;;;;;;;;15.10;54.31;100308.50;5049051;28;19913;-59
2022/03/22 20:54:37;;;;;;;;;;;;;;;15.55;54.21;100305.41;5050163;28;20027;-59
2022/03/22 20:59:46;;;;;;;;;;;;;;;15.60;52.88;100301.78;5051095;28;20019;-61
2022/03/22 21:02:11;;;;;;;;;;;;;;;14.97;52.13;100310.63;5052022;28;20576;-60
2022/03/22 21:04:39;;;;;;;;;;;;;;;15.45;52.45;100313.47;5050708;28;19938;-59
2022/03/22 21:07:05;;;;;;;;;;;;;;;15.59;49.86;100304.41;5052212;28;20042;-59
2022/03/22 21:12:33;;;;;;;;;;;;;;;15.21;50.97;100314.22;5050564;28;20008;-61
2022/03/22 21:14:58;;;;;;;;;;;;;;;15.00;51.09;100308.78;5051740;28;20083;-61
2022/03/22 21:17:25;;;;;;;;;;;;;;;15.05;52.46;100314.72;5048683;28;19924;-59
2022/03/22 21:19:51;;;;;;;;;;;;;;;14.51;53.48;100315.34;5040405;28;19924;-60
2022/03/22 21:22:17;;;;;;;;;;;;;;;14.95;51.56;100315.84;5043830;28;19931;-59
2022/03/22 21:24:42;;;;;;;;;;;;;;;14.98;58.35;100318.34;5023333;28;19917;-59
2022/03/22 21:33:21;;;;;;;;;;;;;;;14.74;62.63;100316.47;5041814;27;20473;-59
2022/03/22 21:35:47;;;;;;;;;;;;;;;14.46;60.35;100318.91;5027045;28;19925;-61
2022/03/22 21:38:12;;;;;;;;;;;;;;;14.19;64.35;100317.03;5029367;28;19955;-61
2022/03/22 21:40:39;;;;;;;;;;;;;;;14.42;63.27;100315.59;5030583;28;19941;-61
2022/03/22 21:43:05;;;;;;;;;;;;;;;14.00;65.44;100323.56;5029021;28;19917;-59
2022/03/22 21:45:30;;;;;;;;;;;;;;;14.37;66.89;100317.44;5010295;28;20326;-60
2022/03/22 21:47:59;;;;;;;;;;;;;;;13.91;68.39;100309.13;5030361;28;19917;-60
2022/03/22 21:50:24;;;;;;;;;;;;;;;13.91;69.49;100314.28;5031311;28;20371;-60
2022/03/22 21:52:50;;;;;;;;;;;;;;;14.21;65.48;100312.66;5030445;28;19921;-60
2022/03/22 21:55:16;;;;;;;;;;;;;;;14.41;68.66;100319.03;5030923;28;20378;-61
2022/03/22 21:57:41;;;;;;;;;;;;;;;14.02;70.55;100314.00;5030163;28;19991;-61
2022/03/22 22:00:06;;;;;;;;;;;;;;;13.64;70.96;100318.41;5031393;28;20394;-60
2022/03/22 22:02:32;;;;;;;;;;;;;;;13.68;71.97;100314.81;5029123;28;19921;-61
2022/03/22 22:04:57;;;;;;;;;;;;;;;13.73;70.30;100315.59;5030657;28;19921;-59
2022/03/22 22:07:22;;;;;;;;;;;;;;;14.14;66.98;100307.66;5028001;28;19921;-60
2022/03/22 22:09:48;;;;;;;;;;;;;;;14.50;64.55;100313.63;5030031;28;19924;-60
2022/03/22 22:12:13;;;;;;;;;;;;;;;14.35;62.12;100308.88;5032570;28;19924;-61
2022/03/22 22:14:38;;;;;;;;;;;;;;;14.51;59.68;100304.97;5029943;28;19971;-60
2022/03/22 22:17:03;;;;;;;;;;;;;;;14.75;57.98;100305.19;5029843;28;19920;-61
2022/03/22 22:19:29;;;;;;;;;;;;;;;14.67;58.54;100304.59;5029527;28;20043;-61
2022/03/22 22:21:55;;;;;;;;;;;;;;;14.66;57.09;100302.88;5030829;28;19920;-59
2022/03/22 22:24:23;;;;;;;;;;;;;;;14.36;60.28;100305.38;5032996;28;19928;-57
2022/03/22 22:26:49;;;;;;;;;;;;;;;14.29;60.49;100299.50;5028567;28;20008;-60
2022/03/22 22:29:14;;;;;;;;;;;;;;;14.38;59.33;100303.59;5027999;28;20466;-59
2022/03/22 22:34:23;;;;;;;;;;;;;;;14.34;59.14;100304.56;5027640;28;19932;-60
2022/03/22 22:36:48;;;;;;;;;;;;;;;13.95;62.05;100309.88;5026049;28;20390;-60
2022/03/22 22:39:14;;;;;;;;;;;;;;;14.04;62.57;100304.47;5028715;28;19921;-60
2022/03/22 22:41:39;;;;;;;;;;;;;;;13.49;67.94;100310.97;5027836;28;19936;-61
2022/03/22 22:44:05;;;;;;;;;;;;;;;13.53;67.97;100302.25;5028077;28;20417;-59
2022/03/22 22:46:30;;;;;;;;;;;;;;;13.29;71.49;100307.09;5029485;28;19971;-60
2022/03/22 22:48:56;;;;;;;;;;;;;;;13.90;63.94;100289.28;5025741;28;19917;-61
2022/03/22 22:51:21;;;;;;;;;;;;;;;13.11;77.12;100310.03;5030641;28;19955;-60
2022/03/22 22:53:47;;;;;;;;;;;;;;;13.30;74.16;100301.03;5030063;28;20020;-60
2022/03/22 22:56:12;;;;;;;;;;;;;;;13.17;72.55;100292.66;5027698;28;20386;-60
2022/03/22 22:58:38;;;;;;;;;;;;;;;12.66;77.03;100299.78;5028724;28;20302;-60
2022/03/22 23:01:08;;;;;;;;;;;;;;;12.37;81.46;100310.69;5009685;28;19921;-60
2022/03/22 23:03:35;;;;;;;;;;;;;;;12.46;79.70;100300.16;5029816;28;19969;-60
2022/03/22 23:06:00;;;;;;;;;;;;;;;12.41;83.37;100297.66;5028199;28;19917;-61
2022/03/22 23:11:09;;;;;;;;;;;;;;;11.98;84.36;100298.44;5026266;28;19928;-61
2022/03/22 23:13:35;;;;;;;;;;;;;;;12.01;85.49;100302.69;5029273;28;19925;-62
2022/03/22 23:16:01;;;;;;;;;;;;;;;12.48;82.46;100298.41;5028014;28;19932;-61
2022/03/22 23:18:27;;;;;;;;;;;;;;;12.56;82.05;100291.34;5011062;28;19913;-59
2022/03/22 23:20:52;;;;;;;;;;;;;;;12.61;82.97;100296.41;5030795;28;19920;-61
2022/03/22 23:23:18;;;;;;;;;;;;;;;12.72;81.09;100297.06;5028983;28;19916;-60
2022/03/22 23:25:43;;;;;;;;;;;;;;;12.81;76.31;100286.53;5031909;28;20348;-59
2022/03/22 23:28:11;;;;;;;;;;;;;;;12.01;80.42;100293.22;5027855;28;19970;-61
2022/03/22 23:30:37;;;;;;;;;;;;;;;12.47;78.20;100284.63;5030286;28;19921;-60
2022/03/22 23:33:02;;;;;;;;;;;;;;;12.37;75.25;100288.25;5029145;28;19994;-59
2022/03/22 23:35:27;;;;;;;;;;;;;;;12.45;75.51;100283.81;5022265;28;20012;-61
2022/03/22 23:37:53;;;;;;;;;;;;;;;12.25;79.43;100291.09;5022509;28;19972;-60
2022/03/22 23:40:18;;;;;;;;;;;;;;;12.09;78.21;100287.94;5023176;28;20199;-60
2022/03/22 23:42:43;;;;;;;;;;;;;;;11.87;81.81;100289.97;5023220;28;20041;-60
2022/03/22 23:45:09;;;;;;;;;;;;;;;11.83;81.80;100290.91;5022899;28;19925;-60
2022/03/22 23:47:35;;;;;;;;;;;;;;;11.61;83.02;100293.84;5021909;28;19983;-60
2022/03/22 23:50:00;;;;;;;;;;;;;;;11.70;83.57;100291.13;5022005;28;19924;-60
2022/03/22 23:52:25;;;;;;;;;;;;;;;11.43;79.04;100294.97;5021964;28;19925;-59
2022/03/22 23:54:51;;;;;;;;;;;;;;;11.62;81.70;100284.38;5022099;28;19921;-60
2022/03/22 23:57:16;;;;;;;;;;;;;;;11.43;79.45;100286.38;5022067;28;20264;-60
2022/03/22 23:59:41;;;;;;;;;;;;;;;11.79;81.57;100279.78;5021904;28;19975;-61
